M I D A S
Marine Information and Data Acquisition System
Tripno 1162 of the Zeeleeuw from 2006-09-08 09:17:16 to 2006-09-08 13:34:01
Back to CruiseResearch ActivitiesStationsMapUnderway DataData graphs

EquipmentUnitsComment
TimeDGPSUTC
LatitudeDGPSDM.mWGS84
LongitudeDGPSDM.mWGS84
TemperatureSBE03/SBE38deg celciusITS90
ConductivitySBE21S/mITS90
SalinitySBE21 Practical Salinity Units
ChlorophylAChelsea fluorimeterg/lCalibrated in Aceton
Missing or incorrect values are displayed as -999
Sea surface data collected by the RV Zeeleeuw from 2006-09-08 07:01:20 to 2006-09-08 13:47:31
Time Latitude Longitude Temperature Conductivity Salinity ChlorophylA
2006-09-08 07:02:26 51°13.599 2°56.058 21.8903 0.011935 0.064474 6.634819
2006-09-08 07:03:24 51°13.593 2°56.096 21.7597 0.011935 0.064477 6.60111
2006-09-08 07:04:25 51°13.586 2°56.12 21.7157 0.011935 0.064478 6.60111
2006-09-08 07:05:25 51°13.582 2°56.124 21.7588 0.011935 0.064479 6.634819
2006-09-08 07:06:25 51°13.578 2°56.133 21.7587 0.011935 0.06448 6.634819
2006-09-08 07:07:25 51°13.579 2°56.136 21.7318 0.011935 0.064481 6.60111
2006-09-08 07:08:25 51°13.579 2°56.136 21.6609 0.011935 0.064482 6.60111
2006-09-08 07:09:25 51°13.579 2°56.135 21.658 0.012039 0.065001 6.60111
2006-09-08 07:10:25 51°13.58 2°56.136 21.6416 0.012039 0.065002 6.60111
2006-09-08 07:11:24 51°13.579 2°56.136 21.4991 0.011935 0.064484 6.5674
2006-09-08 07:12:25 51°13.58 2°56.136 21.5275 0.011935 0.064486 6.5674
2006-09-08 07:13:25 51°13.58 2°56.137 21.5735 0.011935 0.064486 6.533691
2006-09-08 07:14:25 51°13.58 2°56.137 21.6013 0.011935 0.064487 6.60111
2006-09-08 07:15:25 51°13.581 2°56.137 21.6279 0.011935 0.064489 6.5674
2006-09-08 07:16:25 51°13.58 2°56.137 21.6473 0.011935 0.06449 6.533691
2006-09-08 07:17:24 51°13.58 2°56.137 21.6581 0.011935 0.064492 6.499982
2006-09-08 07:18:24 51°13.58 2°56.136 21.6697 0.011935 0.064493 6.533691
2006-09-08 07:19:25 51°13.58 2°56.136 21.6833 0.011935 0.064493 6.499982
2006-09-08 07:20:24 51°13.58 2°56.136 21.6982 0.011935 0.064493 6.499982
2006-09-08 07:21:25 51°13.58 2°56.136 21.7037 0.011935 0.064489 6.533691
2006-09-08 07:22:25 51°13.58 2°56.136 21.715 0.011935 0.064485 6.499982
2006-09-08 07:23:24 51°13.58 2°56.137 21.7276 0.011935 0.064477 6.533691
2006-09-08 07:24:25 51°13.581 2°56.136 21.7394 0.011935 0.064468 6.499982
2006-09-08 07:25:25 51°13.58 2°56.136 21.7493 0.011935 0.064459 6.466272
2006-09-08 07:26:24 51°13.58 2°56.136 21.7575 0.011935 0.064448 6.466272
2006-09-08 07:27:25 51°13.58 2°56.136 21.7668 0.011935 0.064438 6.466272
2006-09-08 07:28:25 51°13.581 2°56.136 21.7732 0.011935 0.064427 6.466272
2006-09-08 07:29:24 51°13.581 2°56.136 21.7839 0.011935 0.064415 6.466272
2006-09-08 07:30:25 51°13.581 2°56.136 21.7919 0.011935 0.064403 6.466272
2006-09-08 07:31:25 51°13.581 2°56.137 21.7924 0.011935 0.064391 6.432563
2006-09-08 07:32:25 51°13.581 2°56.137 21.7973 0.011935 0.064379 6.432563
2006-09-08 07:33:25 51°13.581 2°56.137 21.8055 0.011935 0.064367 6.432563
2006-09-08 07:34:24 51°13.581 2°56.138 21.8184 0.011935 0.064354 6.398853
2006-09-08 07:35:24 51°13.581 2°56.139 21.8284 0.011935 0.064341 6.432563
2006-09-08 07:36:24 51°13.582 2°56.139 21.8376 0.011935 0.064328 6.398853
2006-09-08 07:37:25 51°13.582 2°56.138 21.8498 0.011935 0.064315 6.365144
2006-09-08 07:38:25 51°13.585 2°56.141 21.8546 0.011935 0.064303 6.398853
2006-09-08 07:39:25 51°13.58 2°56.136 21.8633 0.011935 0.06429 6.365144
2006-09-08 07:40:24 51°13.581 2°56.139 21.8704 0.011935 0.064278 6.365144
2006-09-08 07:41:25 51°13.578 2°56.137 21.8808 0.011935 0.064267 6.398853
2006-09-08 07:42:24 51°13.579 2°56.138 21.8865 0.011935 0.064254 6.365144
2006-09-08 07:43:25 51°13.579 2°56.139 21.8894 0.011935 0.064241 6.365144
2006-09-08 07:44:24 51°13.583 2°56.141 21.8983 0.011935 0.064228 6.365144
2006-09-08 07:45:25 51°13.584 2°56.141 21.9071 0.011935 0.064216 6.331435
2006-09-08 07:46:24 51°13.583 2°56.14 21.9146 0.011935 0.064202 6.365144
2006-09-08 07:47:26 51°13.583 2°56.14 21.9296 0.011935 0.06419 6.297725
2006-09-08 07:48:24 51°13.584 2°56.139 21.9389 0.011935 0.064176 6.331435
2006-09-08 07:49:25 51°13.58 2°56.136 21.9456 0.011935 0.064164 6.297725
2006-09-08 07:50:24 51°13.582 2°56.138 21.9518 0.011935 0.064152 6.297725
2006-09-08 07:51:26 51°13.58 2°56.137 21.9579 0.011935 0.06414 6.297725
2006-09-08 07:52:24 51°13.58 2°56.136 21.9653 0.011935 0.064127 6.331435
2006-09-08 07:53:25 51°13.58 2°56.136 21.9741 0.011935 0.064115 6.331435
2006-09-08 07:54:25 51°13.579 2°56.137 21.9796 0.012039 0.064615 6.297725
2006-09-08 07:55:25 51°13.578 2°56.137 21.9926 0.011935 0.06409 6.297725
2006-09-08 07:56:25 51°13.579 2°56.135 21.9945 0.011935 0.064078 6.297725
2006-09-08 07:57:24 51°13.58 2°56.132 22.0054 0.012039 0.064581 6.230306
2006-09-08 07:58:25 51°13.581 2°56.133 22.0114 0.012039 0.064572 6.297725
2006-09-08 07:59:25 51°13.581 2°56.134 22.0179 0.011935 0.064051 6.264016
2006-09-08 08:00:25 51°13.581 2°56.134 22.0241 0.012039 0.064553 6.264016
2006-09-08 08:01:25 51°13.582 2°56.134 22.0297 0.012039 0.064543 6.264016
2006-09-08 08:02:25 51°13.583 2°56.136 22.0327 0.012039 0.064531 6.230306
2006-09-08 08:03:25 51°13.58 2°56.135 22.0404 0.012039 0.064521 6.264016
2006-09-08 08:04:25 51°13.58 2°56.135 22.0513 0.012039 0.06451 6.230306
2006-09-08 08:05:25 51°13.581 2°56.136 22.0619 0.012039 0.064497 6.230306
2006-09-08 08:06:25 51°13.582 2°56.135 22.0653 0.012039 0.064485 6.230306
2006-09-08 08:07:25 51°13.582 2°56.136 22.072 0.012039 0.064471 6.264016
2006-09-08 08:08:25 51°13.582 2°56.136 22.08 0.012039 0.064458 6.230306
2006-09-08 08:09:25 51°13.584 2°56.136 22.082 0.012039 0.064445 6.230306
2006-09-08 08:10:25 51°13.583 2°56.136 22.0908 0.012039 0.064433 6.230306
2006-09-08 08:11:25 51°13.581 2°56.135 22.0938 0.012039 0.06442 6.230306
2006-09-08 08:12:25 51°13.581 2°56.136 22.1047 0.012039 0.064407 6.230306
2006-09-08 08:13:25 51°13.581 2°56.136 22.111 0.012039 0.064395 6.196597
2006-09-08 08:14:25 51°13.58 2°56.135 22.1148 0.012039 0.064382 6.230306
2006-09-08 08:15:25 51°13.58 2°56.136 22.1234 0.012039 0.064371 6.196597
2006-09-08 08:16:24 51°13.58 2°56.136 22.1279 0.012039 0.064357 6.196597
2006-09-08 08:17:25 51°13.58 2°56.136 22.1333 0.012039 0.064344 6.162888
2006-09-08 08:18:24 51°13.576 2°56.126 22.1392 0.012039 0.064332 6.196597
2006-09-08 08:19:25 51°13.578 2°56.134 22.145 0.012039 0.06432 6.196597
2006-09-08 08:20:25 51°13.58 2°56.135 22.1525 0.012039 0.064308 6.196597
2006-09-08 08:21:25 51°13.58 2°56.136 22.1595 0.012039 0.064296 6.162888
2006-09-08 08:22:25 51°13.58 2°56.136 22.1615 0.012039 0.064288 6.162888
2006-09-08 08:23:25 51°13.58 2°56.136 22.1675 0.012039 0.064282 6.162888
2006-09-08 08:24:25 51°13.58 2°56.137 22.1761 0.012039 0.064276 6.162888
2006-09-08 08:25:24 51°13.581 2°56.138 22.1814 0.012039 0.064274 6.162888
2006-09-08 08:26:25 51°13.58 2°56.136 22.1845 0.012039 0.064272 6.162888
2006-09-08 08:27:25 51°13.581 2°56.136 22.19 0.012039 0.06427 6.162888
2006-09-08 08:28:24 51°13.58 2°56.136 22.1966 0.012039 0.064268 6.162888
2006-09-08 08:29:25 51°13.58 2°56.136 22.2006 0.012039 0.064263 6.162888
2006-09-08 08:30:25 51°13.579 2°56.136 22.2064 0.012039 0.064258 6.162888
2006-09-08 08:31:25 51°13.578 2°56.135 22.2129 0.012039 0.064253 6.162888
2006-09-08 08:32:25 51°13.579 2°56.135 22.2172 0.012039 0.064249 6.129178
2006-09-08 08:33:25 51°13.579 2°56.135 22.2234 0.012039 0.064245 6.129178
2006-09-08 08:34:25 51°13.579 2°56.136 22.2307 0.012039 0.064245 6.162888
2006-09-08 08:35:26 51°13.579 2°56.136 22.2364 0.012039 0.064245 6.095469
2006-09-08 08:36:26 51°13.58 2°56.136 22.2392 0.012039 0.064246 6.129178
2006-09-08 08:37:24 51°13.58 2°56.135 22.2449 0.012039 0.064244 6.129178
2006-09-08 08:38:25 51°13.58 2°56.135 22.2511 0.012039 0.064239 6.129178
2006-09-08 08:39:25 51°13.58 2°56.136 22.2571 0.012039 0.064234 6.095469
2006-09-08 08:40:25 51°13.581 2°56.136 22.2609 0.012039 0.064229 6.095469
2006-09-08 08:41:25 51°13.58 2°56.136 22.271 0.012039 0.064228 6.129178
2006-09-08 08:42:25 51°13.58 2°56.136 22.2777 0.012039 0.064228 6.095469
2006-09-08 08:43:24 51°13.58 2°56.136 22.2811 0.012039 0.06423 6.095469
2006-09-08 08:44:25 51°13.578 2°56.136 22.2876 0.012039 0.064234 6.129178
2006-09-08 08:45:25 51°13.578 2°56.136 22.2933 0.012039 0.064236 6.129178
2006-09-08 08:46:24 51°13.578 2°56.136 22.2991 0.012039 0.064239 6.095469
2006-09-08 08:47:24 51°13.579 2°56.137 22.303 0.012039 0.06424 6.095469
2006-09-08 08:48:24 51°13.58 2°56.137 22.3078 0.012039 0.064242 6.061759
2006-09-08 08:49:25 51°13.58 2°56.136 22.3142 0.012039 0.06424 6.095469
2006-09-08 08:50:26 51°13.58 2°56.136 22.3172 0.012039 0.064236 6.061759
2006-09-08 08:51:24 51°13.578 2°56.136 22.3224 0.012039 0.064231 6.095469
2006-09-08 08:52:25 51°13.577 2°56.136 22.3262 0.012039 0.064227 6.061759
2006-09-08 08:53:25 51°13.577 2°56.136 22.3321 0.012039 0.064221 6.061759
2006-09-08 08:54:25 51°13.578 2°56.136 22.3356 0.012039 0.064215 6.02805
2006-09-08 08:55:24 51°13.578 2°56.137 22.3422 0.012039 0.064207 6.061759
2006-09-08 08:56:25 51°13.578 2°56.137 22.3432 0.012039 0.064201 6.061759
2006-09-08 08:57:26 51°13.579 2°56.137 22.3485 0.012039 0.064193 6.02805
2006-09-08 08:58:24 51°13.58 2°56.137 22.354 0.012039 0.064183 5.994341
2006-09-08 08:59:24 51°13.58 2°56.137 22.3576 0.012039 0.06417 6.02805
2006-09-08 09:00:25 51°13.579 2°56.138 22.3655 0.012039 0.064159 6.02805
2006-09-08 09:01:25 51°13.579 2°56.138 22.3672 0.012039 0.064148 6.02805
2006-09-08 09:02:25 51°13.58 2°56.138 22.3731 0.012039 0.064135 5.994341
2006-09-08 09:03:24 51°13.581 2°56.137 22.3752 0.012039 0.064125 5.994341
2006-09-08 09:04:24 51°13.581 2°56.137 22.3817 0.012039 0.064119 6.02805
2006-09-08 09:05:24 51°13.58 2°56.137 22.3885 0.012039 0.064116 6.02805
2006-09-08 09:06:24 51°13.58 2°56.136 22.3909 0.012039 0.064116 6.02805
2006-09-08 09:07:24 51°13.581 2°56.137 22.3937 0.012039 0.064112 5.960631
2006-09-08 09:08:24 51°13.581 2°56.137 22.3993 0.012039 0.064105 5.960631
2006-09-08 09:09:24 51°13.581 2°56.137 22.404 0.012039 0.064095 5.960631
2006-09-08 09:10:24 51°13.581 2°56.136 22.4107 0.012039 0.064084 5.926922
2006-09-08 09:11:25 51°13.58 2°56.136 22.41 0.012039 0.064072 5.960631
2006-09-08 09:12:25 51°13.58 2°56.136 22.4185 0.012039 0.064061 5.960631
2006-09-08 09:13:25 51°13.581 2°56.136 22.423 0.012039 0.064048 5.926922
2006-09-08 09:14:25 51°13.581 2°56.134 22.4243 0.012039 0.064037 5.893212
2006-09-08 09:15:24 51°13.581 2°56.131 22.4292 0.012039 0.064025 5.893212
2006-09-08 09:16:25 51°13.58 2°56.13 22.4409 0.012039 0.064012 5.926922
2006-09-08 09:17:24 51°13.559 2°56.164 22.4699 0.012039 0.063999 5.926922
2006-09-08 09:18:24 51°13.536 2°56.225 22.3537 0.012039 0.063989 5.893212
2006-09-08 09:19:26 51°13.535 2°56.222 21.1106 0.667942 3.885859 6.162888
2006-09-08 09:20:26 51°13.532 2°56.219 19.1392 4.311475 30.700317 4.848221
2006-09-08 09:21:24 51°13.546 2°56.234 19.078 4.170448 30.473094 4.747093
2006-09-08 09:22:26 51°13.532 2°56.236 19.0402 4.138195 30.276192 4.983059
2006-09-08 09:23:25 51°13.528 2°56.243 19.0291 4.141779 30.3184 5.219024
2006-09-08 09:24:26 51°13.534 2°56.221 18.9902 4.140937 30.337516 5.387571
2006-09-08 09:25:27 51°13.578 2°56.079 18.9647 4.112689 30.131259 5.623537
2006-09-08 09:26:26 51°13.634 2°55.934 18.9437 4.150529 30.464469 5.657247
2006-09-08 09:27:25 51°13.683 2°55.826 18.8836 4.163179 30.599027 5.657247
2006-09-08 09:28:26 51°13.735 2°55.726 18.8457 4.158331 30.591943 5.657247
2006-09-08 09:29:26 51°13.809 2°55.646 18.8257 4.192694 30.896883 5.657247
2006-09-08 09:30:26 51°13.894 2°55.588 18.8141 4.187845 30.869813 5.623537
2006-09-08 09:31:26 51°13.982 2°55.533 18.7545 4.213144 31.096151 5.657247
2006-09-08 09:32:25 51°14.07 2°55.473 18.6743 4.209666 31.119122 5.758375
2006-09-08 09:33:25 51°14.174 2°55.389 18.6056 4.202921 31.122217 5.893212
2006-09-08 09:34:26 51°14.27 2°55.258 18.5464 4.211671 31.241664 6.02805
2006-09-08 09:35:26 51°14.352 2°55.098 18.4504 4.206507 31.255967 6.095469
2006-09-08 09:36:27 51°14.457 2°54.879 18.3458 4.212306 31.37455 6.297725
2006-09-08 09:37:26 51°14.592 2°54.664 18.423 4.2589 31.799356 6.904494
2006-09-08 09:38:26 51°14.756 2°54.518 18.3915 4.262694 31.792618 6.904494
2006-09-08 09:39:26 51°14.924 2°54.38 18.4382 4.234337 31.556075 7.410136
2006-09-08 09:40:26 51°15.101 2°54.295 18.4579 4.234653 31.538324 7.17417
2006-09-08 09:41:27 51°15.281 2°54.294 18.4686 4.250043 31.653585 6.499982
2006-09-08 09:42:26 51°15.452 2°54.335 18.4774 4.259531 31.72528 6.297725
2006-09-08 09:43:27 51°15.629 2°54.36 18.4676 4.249832 31.642448 6.398853
2006-09-08 09:44:26 51°15.801 2°54.383 18.472 4.249516 31.64589 6.398853
2006-09-08 09:45:25 51°15.974 2°54.412 18.4671 4.248673 31.636121 6.365144
2006-09-08 09:46:25 51°16.113 2°54.428 18.4573 4.250254 31.65589 6.297725
2006-09-08 09:47:26 51°16.184 2°54.429 18.4618 4.263326 31.770691 6.196597
2006-09-08 09:48:26 51°16.215 2°54.408 18.4546 4.265962 31.798723 6.196597
2006-09-08 09:49:26 51°16.226 2°54.364 18.4803 4.266172 31.796037 6.162888
2006-09-08 09:50:26 51°16.224 2°54.318 18.4635 4.267753 31.798097 6.095469
2006-09-08 09:51:26 51°16.213 2°54.273 18.4581 4.266489 31.797559 6.061759
2006-09-08 09:52:25 51°16.199 2°54.23 18.461 4.266383 31.800012 5.994341
2006-09-08 09:53:26 51°16.191 2°54.19 18.4583 4.266383 31.801122 5.960631
2006-09-08 09:54:26 51°16.187 2°54.159 18.4551 4.266489 31.799224 5.960631
2006-09-08 09:55:27 51°16.181 2°54.141 18.4564 4.266805 31.803521 5.926922
2006-09-08 09:56:27 51°16.176 2°54.132 18.4615 4.267121 31.806708 5.859503
2006-09-08 09:57:26 51°16.175 2°54.129 18.4621 4.267332 31.806242 5.825794
2006-09-08 09:58:27 51°16.181 2°54.126 18.4645 4.267648 31.806098 5.825794
2006-09-08 09:59:26 51°16.188 2°54.129 18.4677 4.267648 31.804433 5.825794
2006-09-08 10:00:25 51°16.195 2°54.135 18.4685 4.267121 31.798937 5.859503
2006-09-08 10:01:27 51°16.205 2°54.144 18.4728 4.26691 31.794964 5.893212
2006-09-08 10:02:27 51°16.212 2°54.162 18.472 4.266805 31.791868 5.926922
2006-09-08 10:03:26 51°16.215 2°54.19 18.4721 4.26575 31.783653 5.994341
2006-09-08 10:04:25 51°16.214 2°54.222 18.4781 4.264802 31.775761 5.960631
2006-09-08 10:05:24 51°16.214 2°54.247 18.4796 4.264907 31.772758 5.960631
2006-09-08 10:06:27 51°16.219 2°54.262 18.4857 4.264169 31.765512 6.02805
2006-09-08 10:07:26 51°16.229 2°54.267 18.4861 4.264485 31.762602 5.994341
2006-09-08 10:08:27 51°16.241 2°54.268 18.4887 4.26438 31.760064 6.061759
2006-09-08 10:09:26 51°16.245 2°54.274 18.4899 4.263853 31.754574 6.02805
2006-09-08 10:10:27 51°16.242 2°54.282 18.492 4.263115 31.748438 6.061759
2006-09-08 10:11:27 51°16.239 2°54.288 18.498 4.26322 31.744886 6.061759
2006-09-08 10:12:27 51°16.24 2°54.285 18.4984 4.262693 31.739951 6.095469
2006-09-08 10:13:27 51°16.241 2°54.276 18.5005 4.262693 31.737738 6.095469
2006-09-08 10:14:27 51°16.236 2°54.274 18.5028 4.262377 31.732343 6.061759
2006-09-08 10:15:27 51°16.23 2°54.279 18.5078 4.261955 31.729945 6.095469
2006-09-08 10:16:26 51°16.23 2°54.278 18.5079 4.262166 31.730038 6.095469
2006-09-08 10:17:27 51°16.224 2°54.256 18.5111 4.26206 31.725291 6.095469
2006-09-08 10:18:26 51°16.214 2°54.227 18.513 4.262377 31.725154 6.095469
2006-09-08 10:19:27 51°16.199 2°54.191 18.5141 4.261744 31.721004 6.061759
2006-09-08 10:20:27 51°16.182 2°54.154 18.5168 4.262166 31.722297 6.095469
2006-09-08 10:21:26 51°16.164 2°54.12 18.5113 4.262166 31.722297 6.02805
2006-09-08 10:22:27 51°16.144 2°54.086 18.5061 4.262271 31.723726 6.095469
2006-09-08 10:23:25 51°16.133 2°54.047 18.5043 4.261639 31.723445 6.095469
2006-09-08 10:24:26 51°16.138 2°54.008 18.5096 4.261533 31.724781 6.129178
2006-09-08 10:25:27 51°16.153 2°53.992 18.5074 4.261744 31.724874 6.162888
2006-09-08 10:26:26 51°16.178 2°53.981 18.5125 4.26185 31.724092 6.230306
2006-09-08 10:27:26 51°16.209 2°53.973 18.5139 4.261744 31.723769 6.230306
2006-09-08 10:28:25 51°16.232 2°53.965 18.5185 4.261849 31.719669 6.264016
2006-09-08 10:29:26 51°16.254 2°53.951 18.5238 4.261955 31.715571 6.196597
2006-09-08 10:30:26 51°16.272 2°53.941 18.5296 4.261428 31.70843 6.196597
2006-09-08 10:31:27 51°16.288 2°53.928 18.536 4.260584 31.69756 6.196597
2006-09-08 10:32:25 51°16.304 2°53.917 18.5383 4.258898 31.680793 6.196597
2006-09-08 10:33:27 51°16.32 2°53.907 18.5453 4.257843 31.666524 6.196597
2006-09-08 10:34:26 51°16.337 2°53.895 18.5501 4.256367 31.651516 6.196597
2006-09-08 10:35:25 51°16.354 2°53.882 18.5466 4.254681 31.636414 6.230306
2006-09-08 10:36:27 51°16.364 2°53.87 18.5519 4.252889 31.618237 6.230306
2006-09-08 10:37:27 51°16.367 2°53.853 18.5561 4.25078 31.599091 6.264016
2006-09-08 10:38:27 51°16.406 2°53.818 18.5588 4.249726 31.587595 6.230306
2006-09-08 10:39:27 51°16.459 2°53.67 18.5744 4.248988 31.575428 6.264016
2006-09-08 10:40:27 51°16.521 2°53.48 18.5766 4.250358 31.578005 6.398853
2006-09-08 10:41:27 51°16.594 2°53.295 18.5861 4.257632 31.636682 6.466272
2006-09-08 10:42:26 51°16.676 2°53.128 18.5887 4.269017 31.725069 6.499982
2006-09-08 10:43:27 51°16.772 2°52.98 18.6115 4.281456 31.819446 6.499982
2006-09-08 10:44:26 51°16.869 2°52.85 18.6169 4.290838 31.884014 6.5674
2006-09-08 10:45:27 51°16.969 2°52.712 18.6124 4.29379 31.908508 6.634819
2006-09-08 10:46:25 51°17.068 2°52.583 18.6262 4.295582 31.920053 6.60111
2006-09-08 10:47:26 51°17.17 2°52.448 18.6387 4.297796 31.931213 6.432563
2006-09-08 10:48:26 51°17.267 2°52.313 18.6196 4.301064 31.961106 6.297725
2006-09-08 10:49:27 51°17.366 2°52.172 18.6207 4.30644 32.007955 6.230306
2006-09-08 10:50:26 51°17.464 2°52.041 18.6178 4.316561 32.093657 6.129178
2006-09-08 10:51:27 51°17.565 2°51.924 18.6189 4.324362 32.155104 6.095469
2006-09-08 10:52:27 51°17.662 2°51.812 18.6108 4.332796 32.229092 6.02805
2006-09-08 10:53:25 51°17.743 2°51.707 18.6234 4.343233 32.316967 6.02805
2006-09-08 10:54:27 51°17.821 2°51.626 18.6449 4.352194 32.380789 5.859503
2006-09-08 10:55:27 51°17.894 2°51.551 18.6494 4.360944 32.440023 5.893212
2006-09-08 10:56:26 51°17.967 2°51.478 18.652 4.366953 32.487729 5.859503
2006-09-08 10:57:25 51°18.038 2°51.405 18.6528 4.373068 32.535751 5.859503
2006-09-08 10:58:26 51°18.113 2°51.33 18.6523 4.37623 32.562619 5.859503
2006-09-08 10:59:26 51°18.178 2°51.26 18.6476 4.379393 32.593454 5.859503
2006-09-08 11:00:25 51°18.218 2°51.213 18.6501 4.382978 32.62441 5.825794
2006-09-08 11:01:26 51°18.252 2°51.176 18.6605 4.385824 32.64356 5.792084
2006-09-08 11:02:25 51°18.281 2°51.146 18.663 4.388355 32.66121 5.792084
2006-09-08 11:03:26 51°18.307 2°51.118 18.6681 4.39099 32.678601 5.758375
2006-09-08 11:04:25 51°18.334 2°51.095 18.6736 4.394048 32.695525 5.724665
2006-09-08 11:05:26 51°18.349 2°51.078 18.6749 4.397316 32.72385 5.690956
2006-09-08 11:06:26 51°18.361 2°51.034 18.6732 4.399846 32.744903 5.724665
2006-09-08 11:07:26 51°18.347 2°50.967 18.6715 4.402166 32.763634 5.690956
2006-09-08 11:08:26 51°18.313 2°50.866 18.6566 4.404801 32.790122 5.724665
2006-09-08 11:09:25 51°18.275 2°50.745 18.6496 4.40554 32.805948 5.724665
2006-09-08 11:10:26 51°18.226 2°50.618 18.6462 4.405329 32.808751 5.724665
2006-09-08 11:11:26 51°18.176 2°50.491 18.6642 4.405961 32.813448 5.724665
2006-09-08 11:12:24 51°18.127 2°50.37 18.6749 4.407543 32.81066 5.724665
2006-09-08 11:13:26 51°18.071 2°50.243 18.6748 4.408175 32.810799 5.758375
2006-09-08 11:14:26 51°18.012 2°50.128 18.671 4.40807 32.810491 5.724665
2006-09-08 11:15:26 51°17.956 2°50.012 18.6573 4.40807 32.816757 5.758375
2006-09-08 11:16:26 51°17.897 2°49.901 18.652 4.407859 32.82355 5.758375
2006-09-08 11:17:26 51°17.828 2°49.806 18.641 4.406699 32.820164 5.792084
2006-09-08 11:18:25 51°17.77 2°49.744 18.6422 4.40554 32.816777 5.758375
2006-09-08 11:19:26 51°17.724 2°49.705 18.6382 4.404696 32.808612 5.758375
2006-09-08 11:20:25 51°17.69 2°49.676 18.6289 4.404064 32.807904 5.758375
2006-09-08 11:21:26 51°17.669 2°49.632 18.6211 4.40322 32.804869 5.758375
2006-09-08 11:22:26 51°17.677 2°49.6 18.6228 4.40185 32.798013 5.792084
2006-09-08 11:23:26 51°17.682 2°49.595 18.6246 4.401428 32.7945 5.792084
2006-09-08 11:24:24 51°17.68 2°49.603 18.6297 4.401323 32.793621 5.792084
2006-09-08 11:25:25 51°17.675 2°49.618 18.6312 4.401534 32.793098 5.758375
2006-09-08 11:26:24 51°17.676 2°49.617 18.6322 4.401428 32.79051 5.758375
2006-09-08 11:27:26 51°17.688 2°49.608 18.6348 4.401534 32.788539 5.792084
2006-09-08 11:28:26 51°17.697 2°49.609 18.6392 4.401323 32.785073 5.758375
2006-09-08 11:29:24 51°17.699 2°49.616 18.6395 4.401744 32.785168 5.758375
2006-09-08 11:30:24 51°17.7 2°49.626 18.6497 4.402061 32.783814 5.758375
2006-09-08 11:31:25 51°17.699 2°49.639 18.6512 4.402377 32.78417 5.758375
2006-09-08 11:32:26 51°17.696 2°49.654 18.6539 4.402693 32.783956 5.724665
2006-09-08 11:33:26 51°17.694 2°49.673 18.6594 4.403009 32.784881 5.724665
2006-09-08 11:34:25 51°17.691 2°49.692 18.6599 4.40322 32.78322 5.724665
2006-09-08 11:35:26 51°17.689 2°49.712 18.6613 4.403326 32.78239 5.724665
2006-09-08 11:36:24 51°17.688 2°49.732 18.6632 4.403642 32.783315 5.758375
2006-09-08 11:37:26 51°17.686 2°49.753 18.6689 4.403642 32.7799 5.724665
2006-09-08 11:38:24 51°17.686 2°49.774 18.6721 4.403853 32.781086 5.724665
2006-09-08 11:39:26 51°17.684 2°49.795 18.6737 4.404063 32.778858 5.758375
2006-09-08 11:40:24 51°17.682 2°49.815 18.6753 4.404274 32.779474 5.724665
2006-09-08 11:41:26 51°17.682 2°49.839 18.6768 4.40438 32.779214 5.758375
2006-09-08 11:42:25 51°17.68 2°49.86 18.6795 4.404485 32.779522 5.758375
2006-09-08 11:43:26 51°17.678 2°49.883 18.6819 4.404907 32.779618 5.792084
2006-09-08 11:44:26 51°17.676 2°49.906 18.6812 4.404485 32.776678 5.792084
2006-09-08 11:45:24 51°17.676 2°49.928 18.6862 4.404801 32.778741 5.758375
2006-09-08 11:46:24 51°17.677 2°49.949 18.6891 4.404907 32.776205 5.758375
2006-09-08 11:47:26 51°17.678 2°49.97 18.6955 4.405434 32.777178 5.825794
2006-09-08 11:48:25 51°17.681 2°49.991 18.6986 4.405644 32.774383 5.792084
2006-09-08 11:49:26 51°17.685 2°50.012 18.7045 4.406066 32.77448 5.758375
2006-09-08 11:50:26 51°17.688 2°50.032 18.7166 4.406382 32.770858 5.792084
2006-09-08 11:51:26 51°17.691 2°50.054 18.7142 4.406804 32.77266 5.792084
2006-09-08 11:52:26 51°17.693 2°50.078 18.7173 4.406804 32.768683 5.792084
2006-09-08 11:53:24 51°17.698 2°50.1 18.7234 4.407226 32.770484 5.825794
2006-09-08 11:54:26 51°17.702 2°50.125 18.7206 4.40712 32.767336 5.825794
2006-09-08 11:55:26 51°17.703 2°50.152 18.7216 4.40712 32.766768 5.825794
2006-09-08 11:56:26 51°17.707 2°50.182 18.7234 4.407331 32.769089 5.825794
2006-09-08 11:57:26 51°17.709 2°50.211 18.7224 4.407015 32.764755 5.825794
2006-09-08 11:58:25 51°17.713 2°50.24 18.7155 4.406698 32.764398 5.825794
2006-09-08 11:59:26 51°17.715 2°50.268 18.7128 4.406066 32.761411 5.825794
2006-09-08 12:00:25 51°17.719 2°50.294 18.7106 4.405539 32.761004 5.825794
2006-09-08 12:01:26 51°17.725 2°50.323 18.7061 4.404695 32.756831 5.859503
2006-09-08 12:02:26 51°17.73 2°50.349 18.7017 4.404274 32.756165 5.893212
2006-09-08 12:03:25 51°17.734 2°50.376 18.7028 4.403957 32.754103 5.859503
2006-09-08 12:04:26 51°17.738 2°50.403 18.7047 4.403747 32.75235 5.893212
2006-09-08 12:05:27 51°17.744 2°50.43 18.7034 4.403641 32.752041 5.893212
2006-09-08 12:06:26 51°17.749 2°50.457 18.7009 4.403325 32.751683 5.893212
2006-09-08 12:07:26 51°17.755 2°50.482 18.7028 4.402903 32.74704 5.893212
2006-09-08 12:08:26 51°17.758 2°50.509 18.708 4.402903 32.745904 5.926922
2006-09-08 12:09:26 51°17.765 2°50.535 18.7157 4.403641 32.745226 5.893212
2006-09-08 12:10:26 51°17.772 2°50.561 18.7215 4.403746 32.743264 5.926922
2006-09-08 12:11:26 51°17.779 2°50.587 18.7247 4.403746 32.739858 5.893212
2006-09-08 12:12:26 51°17.787 2°50.611 18.7267 4.404484 32.74202 5.893212
2006-09-08 12:13:25 51°17.793 2°50.637 18.7322 4.404484 32.739183 5.926922
2006-09-08 12:14:25 51°17.801 2°50.664 18.7292 4.404168 32.737122 5.893212
2006-09-08 12:15:25 51°17.811 2°50.687 18.7322 4.403852 32.732791 5.926922
2006-09-08 12:16:26 51°17.82 2°50.71 18.7329 4.404168 32.733718 5.926922
2006-09-08 12:17:25 51°17.828 2°50.739 18.7283 4.403535 32.73073 5.926922
2006-09-08 12:18:27 51°17.836 2°50.764 18.73 4.40343 32.729287 5.926922
2006-09-08 12:19:26 51°17.844 2°50.793 18.7318 4.403325 32.729545 5.926922
2006-09-08 12:20:26 51°17.852 2°50.82 18.7292 4.403325 32.729545 5.960631
2006-09-08 12:21:27 51°17.86 2°50.852 18.7315 4.403641 32.729337 5.960631
2006-09-08 12:22:26 51°17.869 2°50.881 18.7346 4.403957 32.731398 5.960631
2006-09-08 12:23:27 51°17.877 2°50.911 18.735 4.405011 32.738458 5.960631
2006-09-08 12:24:26 51°17.888 2°50.944 18.735 4.405749 32.744023 5.960631
2006-09-08 12:25:26 51°17.897 2°50.975 18.736 4.406698 32.751908 5.960631
2006-09-08 12:26:25 51°17.907 2°51.008 18.7362 4.408069 32.763298 5.994341
2006-09-08 12:27:27 51°17.916 2°51.038 18.7374 4.409123 32.772059 5.994341
2006-09-08 12:28:25 51°17.925 2°51.072 18.7376 4.410388 32.782006 6.061759
2006-09-08 12:29:26 51°17.934 2°51.103 18.7382 4.411653 32.791953 5.994341
2006-09-08 12:30:27 51°17.945 2°51.139 18.7351 4.412497 32.800668 5.994341
2006-09-08 12:31:26 51°17.956 2°51.172 18.7363 4.413551 32.809431 6.02805
2006-09-08 12:32:27 51°17.974 2°51.174 18.7348 4.414816 32.819379 6.02805
2006-09-08 12:33:26 51°18.011 2°51.151 18.7411 4.416082 32.829327 6.061759
2006-09-08 12:34:27 51°18.057 2°51.11 18.7478 4.417663 32.838491 6.129178
2006-09-08 12:35:26 51°18.098 2°51.058 18.7482 4.417452 32.832757 6.129178
2006-09-08 12:36:26 51°18.146 2°50.999 18.7523 4.415554 32.814711 6.162888
2006-09-08 12:37:27 51°18.197 2°50.946 18.7601 4.41334 32.792905 6.129178
2006-09-08 12:38:26 51°18.253 2°50.918 18.7665 4.41218 32.778161 6.162888
2006-09-08 12:39:26 51°18.315 2°50.894 18.7648 4.415765 32.804531 6.196597
2006-09-08 12:40:26 51°18.372 2°50.878 18.7665 4.419349 32.833742 6.196597
2006-09-08 12:41:27 51°18.42 2°50.878 18.7639 4.420931 32.849156 6.162888
2006-09-08 12:42:25 51°18.449 2°50.896 18.7644 4.417768 32.820604 6.162888
2006-09-08 12:43:26 51°18.468 2°50.921 18.7699 4.412602 32.778826 6.129178
2006-09-08 12:44:27 51°18.481 2°50.947 18.7661 4.410599 32.75992 6.095469
2006-09-08 12:45:27 51°18.493 2°50.976 18.7645 4.408385 32.7421 6.095469
2006-09-08 12:46:27 51°18.503 2°51.012 18.7638 4.407225 32.73417 6.095469
2006-09-08 12:47:26 51°18.513 2°51.039 18.7607 4.406592 32.728916 6.061759
2006-09-08 12:48:26 51°18.525 2°51.061 18.7576 4.405854 32.725621 6.061759
2006-09-08 12:49:27 51°18.554 2°51.055 18.7549 4.405644 32.72387 6.095469
2006-09-08 12:50:27 51°18.599 2°51.057 18.7509 4.405538 32.728094 6.095469
2006-09-08 12:51:26 51°18.636 2°51.063 18.7465 4.406171 32.736183 6.129178
2006-09-08 12:52:26 51°18.669 2°51.07 18.7336 4.406487 32.746184 6.162888
2006-09-08 12:53:27 51°18.698 2°51.081 18.7231 4.40712 32.761657 6.196597
2006-09-08 12:54:26 51°18.725 2°51.093 18.7207 4.407331 32.766249 6.162888
2006-09-08 12:55:26 51°18.752 2°51.105 18.7191 4.407436 32.769965 6.162888
2006-09-08 12:56:25 51°18.779 2°51.116 18.7184 4.407858 32.774607 6.196597
2006-09-08 12:57:27 51°18.805 2°51.13 18.715 4.407542 32.771978 6.162888
2006-09-08 12:58:25 51°18.828 2°51.139 18.7177 4.407436 32.773374 6.162888
2006-09-08 12:59:27 51°18.853 2°51.151 18.7097 4.406593 32.768634 6.129178
2006-09-08 13:00:27 51°18.878 2°51.162 18.7118 4.406066 32.764819 6.129178
2006-09-08 13:01:27 51°18.906 2°51.178 18.7148 4.405855 32.763066 6.196597
2006-09-08 13:02:27 51°18.92 2°51.2 18.712 4.405644 32.761313 6.162888
2006-09-08 13:03:26 51°18.931 2°51.223 18.714 4.405644 32.759609 6.162888
2006-09-08 13:04:27 51°18.942 2°51.249 18.7102 4.40575 32.762189 6.129178
2006-09-08 13:05:25 51°18.96 2°51.242 18.7038 4.405433 32.761264 6.129178
2006-09-08 13:06:26 51°18.936 2°51.202 18.701 4.405328 32.7655 6.162888
2006-09-08 13:07:25 51°18.847 2°51.291 18.7113 4.405223 32.766329 6.196597
2006-09-08 13:08:27 51°18.696 2°51.445 18.7094 4.407542 32.77766 6.297725
2006-09-08 13:09:27 51°18.532 2°51.618 18.7217 4.413446 32.827897 6.398853
2006-09-08 13:10:27 51°18.361 2°51.759 18.7184 4.426625 32.924975 6.466272
2006-09-08 13:11:27 51°18.183 2°51.888 18.7087 4.435165 33.005178 6.5674
2006-09-08 13:12:26 51°18.012 2°52.018 18.6748 4.453089 33.163613 6.5674
2006-09-08 13:13:26 51°17.838 2°52.147 18.6162 4.496635 33.566309 6.398853
2006-09-08 13:14:26 51°17.666 2°52.272 18.6012 4.521203 33.809275 6.230306
2006-09-08 13:15:27 51°17.488 2°52.397 18.6038 4.52057 33.808686 6.196597
2006-09-08 13:16:27 51°17.312 2°52.51 18.665 4.511608 33.724849 6.196597
2006-09-08 13:17:27 51°17.139 2°52.622 18.7493 4.479342 33.395193 6.230306
2006-09-08 13:18:27 51°16.964 2°52.73 18.7703 4.416608 32.815515 6.466272
2006-09-08 13:19:26 51°16.795 2°52.856 18.752 4.383187 32.534642 6.60111
2006-09-08 13:20:27 51°16.617 2°52.973 18.737 4.377283 32.501981 6.634819
2006-09-08 13:21:27 51°16.444 2°53.099 18.7376 4.367268 32.424492 6.668529
2006-09-08 13:22:27 51°16.268 2°53.214 18.7351 4.364527 32.405117 6.735947
2006-09-08 13:23:27 51°16.089 2°53.33 18.7428 4.364949 32.401319 6.769657
2006-09-08 13:24:27 51°15.911 2°53.445 18.7419 4.372012 32.459362 6.769657
2006-09-08 13:25:26 51°15.738 2°53.569 18.7231 4.392887 32.635471 6.735947
2006-09-08 13:26:27 51°15.555 2°53.679 18.717 4.409756 32.783565 6.735947
2006-09-08 13:27:26 51°15.379 2°53.791 18.6745 4.418507 32.867142 6.735947
2006-09-08 13:28:26 51°15.198 2°53.905 18.6887 4.401639 32.765504 6.702238
2006-09-08 13:29:27 51°15.009 2°54.014 18.7398 4.40944 32.799128 6.60111
2006-09-08 13:30:25 51°14.835 2°54.141 18.6924 4.431896 32.964258 6.533691
2006-09-08 13:31:26 51°14.686 2°54.357 18.6782 4.465425 33.28489 6.60111
2006-09-08 13:32:26 51°14.558 2°54.61 18.6536 4.482822 33.430026 6.398853
2006-09-08 13:33:27 51°14.44 2°54.88 18.6216 4.483244 33.467834 6.533691
2006-09-08 13:34:27 51°14.327 2°55.131 18.6084 4.47618 33.422188 6.5674
2006-09-08 13:35:27 51°14.227 2°55.308 18.5754 4.408176 32.870146 7.039332
2006-09-08 13:36:27 51°14.136 2°55.41 18.5974 4.330477 32.239517 7.17417
2006-09-08 13:37:26 51°14.052 2°55.47 18.6091 4.290311 31.89017 7.039332
2006-09-08 13:38:27 51°13.961 2°55.532 18.6462 4.263429 31.647902 6.971913
2006-09-08 13:39:27 51°13.866 2°55.602 18.6557 4.245508 31.486325 6.971913
2006-09-08 13:40:27 51°13.773 2°55.682 18.6702 4.228853 31.332188 7.005623
2006-09-08 13:41:27 51°13.711 2°55.779 18.7722 4.210616 31.158229 6.938204
2006-09-08 13:42:27 51°13.666 2°55.875 18.848 4.184473 30.864992 6.735947
2006-09-08 13:43:27 51°13.632 2°55.956 18.8995 4.168661 30.696262 6.735947
2006-09-08 13:44:26 51°13.609 2°56.034 19.0002 4.145154 30.453992 6.634819
2006-09-08 13:45:27 51°13.602 2°56.077 19.1655 4.073164 29.760311 6.60111
2006-09-08 13:46:26 51°13.599 2°56.087 19.1512 4.042176 29.445774 6.60111
2006-09-08 13:47:27 51°13.597 2°56.094 19.1299 4.060726 29.602344 6.5674